createdAt,value
2019-04-28T00:01:21.887Z,6.50
2019-04-28T00:03:51.535Z,6.50
2019-04-28T00:06:21.135Z,6.50
2019-04-28T00:08:49.216Z,6.50
2019-04-28T00:11:17.069Z,6.40
2019-04-28T00:13:45.030Z,6.40
2019-04-28T00:16:13.164Z,6.40
2019-04-28T00:18:41.748Z,6.40
2019-04-28T00:21:17.202Z,6.30
2019-04-28T00:23:56.644Z,6.30
2019-04-28T00:26:41.250Z,6.30
2019-04-28T00:29:10.987Z,6.30
2019-04-28T00:31:39.012Z,6.30
2019-04-28T00:34:06.881Z,6.30
2019-04-28T00:36:35.958Z,6.20
2019-04-28T00:39:04.298Z,6.20
2019-04-28T00:41:32.326Z,6.20
2019-04-28T00:44:01.892Z,6.10
2019-04-28T00:46:33.975Z,6.10
2019-04-28T00:49:02.236Z,6.10
2019-04-28T00:51:31.322Z,6.10
2019-04-28T00:54:00.826Z,6.00
2019-04-28T00:56:28.834Z,6.00
2019-04-28T00:58:56.597Z,6.00
2019-04-28T01:01:38.515Z,5.90
2019-04-28T01:04:06.271Z,5.90
2019-04-28T01:06:34.201Z,5.90
2019-04-28T01:09:03.828Z,5.80
2019-04-28T01:11:32.937Z,5.80
2019-04-28T01:14:01.995Z,5.80
2019-04-28T01:16:43.431Z,5.70
2019-04-28T01:19:15.809Z,5.70
2019-04-28T01:21:57.679Z,5.60
2019-04-28T01:24:25.511Z,5.60
2019-04-28T01:26:55.035Z,5.60
2019-04-28T01:29:23.150Z,5.50
2019-04-28T01:31:59.976Z,5.40
2019-04-28T01:34:29.986Z,5.40
2019-04-28T01:36:57.557Z,5.40
2019-04-28T01:39:26.711Z,5.40
2019-04-28T01:41:55.083Z,5.40
2019-04-28T01:44:23.055Z,5.40
2019-04-28T01:46:50.895Z,5.50
2019-04-28T01:49:19.607Z,5.50
2019-04-28T01:51:57.649Z,5.50
2019-04-28T01:54:26.605Z,5.60
2019-04-28T01:56:54.594Z,5.60
2019-04-28T01:59:22.599Z,5.70
2019-04-28T02:01:53.428Z,5.70
2019-04-28T02:04:21.476Z,5.70
2019-04-28T02:06:49.756Z,5.70
2019-04-28T02:09:19.508Z,5.70
2019-04-28T02:11:49.755Z,5.70
2019-04-28T02:14:19.481Z,5.80
2019-04-28T02:16:47.426Z,5.80
2019-04-28T02:19:15.290Z,5.80
2019-04-28T02:21:56.909Z,5.80
2019-04-28T02:24:32.308Z,5.80
2019-04-28T02:27:00.967Z,5.70
2019-04-28T02:29:30.045Z,5.80
2019-04-28T02:32:01.737Z,5.80
2019-04-28T02:34:30.887Z,5.80
2019-04-28T02:37:01.029Z,5.70
2019-04-28T02:39:27.884Z,5.80
2019-04-28T02:41:56.042Z,5.80
2019-04-28T02:44:25.151Z,5.80
2019-04-28T02:46:53.159Z,5.90
2019-04-28T02:49:40.669Z,5.90
2019-04-28T02:52:16.952Z,5.90
2019-04-28T02:54:45.502Z,5.90
2019-04-28T02:57:14.683Z,5.90
2019-04-28T02:59:44.723Z,5.90
2019-04-28T03:02:14.281Z,5.90
2019-04-28T03:04:42.957Z,5.90
2019-04-28T03:07:14.496Z,5.90
2019-04-28T03:09:42.172Z,5.90
2019-04-28T03:12:11.395Z,6.00
2019-04-28T03:14:44.130Z,6.00
2019-04-28T03:17:11.165Z,6.00
2019-04-28T03:19:41.583Z,6.00
2019-04-28T03:22:11.579Z,6.00
2019-04-28T03:24:41.454Z,6.00
2019-04-28T03:27:17.503Z,6.00
2019-04-28T03:29:52.509Z,6.00
2019-04-28T03:32:40.012Z,6.00
2019-04-28T03:34:55.440Z,6.00
2019-04-28T03:37:24.506Z,6.00
2019-04-28T03:39:53.302Z,6.00
2019-04-28T03:42:21.997Z,6.00
2019-04-28T03:44:51.379Z,6.00
2019-04-28T03:47:21.018Z,6.00
2019-04-28T03:49:50.723Z,6.00
2019-04-28T03:52:21.321Z,6.00
2019-04-28T03:54:51.451Z,6.00
2019-04-28T03:57:21.492Z,6.00
2019-04-28T03:59:51.227Z,6.00
2019-04-28T04:02:23.599Z,6.00
2019-04-28T04:04:52.622Z,6.00
2019-04-28T04:07:21.801Z,6.00
2019-04-28T04:09:51.864Z,6.00
2019-04-28T04:12:31.080Z,6.00
2019-04-28T04:15:03.900Z,6.00
2019-04-28T04:17:35.662Z,6.00
2019-04-28T04:20:04.496Z,6.00
2019-04-28T04:22:32.497Z,6.00
2019-04-28T04:25:03.743Z,6.00
2019-04-28T04:27:32.745Z,6.00
2019-04-28T04:30:02.038Z,6.00
2019-04-28T04:32:33.870Z,6.00
2019-04-28T04:35:00.866Z,6.10
2019-04-28T04:37:30.774Z,6.00
2019-04-28T04:40:01.459Z,6.10
2019-04-28T04:42:30.648Z,6.10
2019-04-28T04:45:00.486Z,6.10
2019-04-28T04:47:32.498Z,6.10
2019-04-28T04:50:00.274Z,6.10
2019-04-28T04:52:30.390Z,6.20
2019-04-28T04:55:01.028Z,6.20
2019-04-28T04:57:32.410Z,6.20
2019-04-28T04:59:59.997Z,6.20
2019-04-28T05:02:33.296Z,6.10
2019-04-28T05:05:11.717Z,6.20
2019-04-28T05:07:39.649Z,6.20
2019-04-28T05:10:10.574Z,6.20
2019-04-28T05:12:40.419Z,6.20
2019-04-28T05:15:10.364Z,6.30
2019-04-28T05:17:40.198Z,6.30
2019-04-28T05:20:09.849Z,6.40
2019-04-28T05:22:40.047Z,6.40
2019-04-28T05:25:12.001Z,6.40
2019-04-28T05:27:40.065Z,6.40
2019-04-28T05:30:10.439Z,6.40
2019-04-28T05:32:44.137Z,6.40
2019-04-28T05:35:10.254Z,6.40
2019-04-28T05:37:40.304Z,6.50
2019-04-28T05:40:10.317Z,6.50
2019-04-28T05:42:39.835Z,6.50
2019-04-28T05:45:10.275Z,6.50
2019-04-28T05:47:38.043Z,6.50
2019-04-28T05:50:08.342Z,6.50
2019-04-28T05:52:56.399Z,6.60
2019-04-28T05:55:41.888Z,6.70
2019-04-28T05:58:14.402Z,6.70
2019-04-28T06:00:47.464Z,6.70
2019-04-28T06:03:20.257Z,6.70
2019-04-28T06:05:49.700Z,6.70
2019-04-28T06:08:36.129Z,6.70
2019-04-28T06:11:05.580Z,6.70
2019-04-28T06:13:33.549Z,6.70
2019-04-28T06:16:01.764Z,6.70
2019-04-28T06:18:30.810Z,6.70
2019-04-28T06:20:58.765Z,6.70
2019-04-28T06:23:28.444Z,6.70
2019-04-28T06:25:58.315Z,6.70
2019-04-28T06:28:26.596Z,6.80
2019-04-28T06:30:54.914Z,6.80
2019-04-28T06:33:23.312Z,6.90
2019-04-28T06:35:51.386Z,7.00
2019-04-28T06:38:21.157Z,7.00
2019-04-28T06:40:49.713Z,7.00
2019-04-28T06:43:17.589Z,7.00
2019-04-28T06:45:45.563Z,7.00
2019-04-28T06:48:13.571Z,7.10
2019-04-28T06:50:42.975Z,7.10
2019-04-28T06:53:12.357Z,7.20
2019-04-28T06:55:40.255Z,7.20
2019-04-28T06:58:08.125Z,7.20
2019-04-28T07:00:37.000Z,7.20
2019-04-28T07:03:04.830Z,7.20
2019-04-28T07:05:32.717Z,7.20
2019-04-28T07:08:00.711Z,7.30
2019-04-28T07:10:29.638Z,7.30
2019-04-28T07:12:57.834Z,7.40
2019-04-28T07:15:25.749Z,7.60
2019-04-28T07:17:53.599Z,7.70
2019-04-28T07:20:37.876Z,7.90
2019-04-28T07:23:05.845Z,8.00
2019-04-28T07:25:33.712Z,8.00
2019-04-28T07:28:02.610Z,8.00
2019-04-28T07:30:30.823Z,8.00
2019-04-28T07:32:59.053Z,8.10
2019-04-28T07:35:27.102Z,8.10
2019-04-28T07:37:54.887Z,8.10
2019-04-28T07:40:24.354Z,8.10
2019-04-28T07:42:52.270Z,8.10
2019-04-28T07:45:21.332Z,8.00
2019-04-28T07:47:49.200Z,8.00
2019-04-28T07:50:17.199Z,7.90
2019-04-28T07:52:47.078Z,7.90
2019-04-28T07:55:15.995Z,7.90
2019-04-28T07:57:43.754Z,7.80
2019-04-28T08:00:13.334Z,7.80
2019-04-28T08:02:41.312Z,7.70
2019-04-28T08:05:09.273Z,7.70
2019-04-28T08:07:37.548Z,7.70
2019-04-28T08:10:06.335Z,7.60
2019-04-28T08:12:34.293Z,7.60
2019-04-28T08:15:02.281Z,7.60
2019-04-28T08:17:31.233Z,7.50
2019-04-28T08:20:00.161Z,7.50
2019-04-28T08:22:28.053Z,7.50
2019-04-28T08:24:55.913Z,7.40
2019-04-28T08:27:27.103Z,7.40
2019-04-28T08:29:58.547Z,7.40
2019-04-28T08:32:31.893Z,7.40
2019-04-28T08:34:59.968Z,7.50
2019-04-28T08:37:27.808Z,7.50
2019-04-28T08:39:55.684Z,7.50
2019-04-28T08:42:23.718Z,7.60
2019-04-28T08:44:51.856Z,7.70
2019-04-28T08:47:20.790Z,7.80
2019-04-28T08:49:48.718Z,7.80
2019-04-28T08:52:16.678Z,7.80
2019-04-28T08:54:44.582Z,7.80
2019-04-28T08:57:12.699Z,7.80
2019-04-28T08:59:40.982Z,7.80
2019-04-28T09:02:09.186Z,7.70
2019-04-28T09:04:38.758Z,7.70
2019-04-28T09:07:06.588Z,7.70
2019-04-28T09:09:34.646Z,7.70
2019-04-28T09:12:02.609Z,7.80
2019-04-28T09:14:30.597Z,7.90
2019-04-28T09:16:59.473Z,7.90
2019-04-28T09:19:27.407Z,7.90
2019-04-28T09:21:55.259Z,8.00
2019-04-28T09:24:23.111Z,8.00
2019-04-28T09:26:51.478Z,8.00
2019-04-28T09:29:19.521Z,8.00
2019-04-28T09:31:47.675Z,8.00
2019-04-28T09:34:27.591Z,7.90
2019-04-28T09:36:45.387Z,7.90
2019-04-28T09:39:15.097Z,7.80
2019-04-28T09:41:44.764Z,7.80
2019-04-28T09:44:14.487Z,7.80
2019-04-28T09:46:44.361Z,7.80
2019-04-28T09:49:12.364Z,7.80
2019-04-28T09:51:40.280Z,7.80
2019-04-28T09:54:10.107Z,7.70
2019-04-28T09:56:37.919Z,7.70
2019-04-28T09:59:05.947Z,7.70
2019-04-28T10:01:34.294Z,7.80
2019-04-28T10:04:02.232Z,7.90
2019-04-28T10:06:30.148Z,8.00
2019-04-28T10:08:58.154Z,8.20
2019-04-28T10:11:30.712Z,8.50
2019-04-28T10:13:57.351Z,8.60
2019-04-28T10:16:28.176Z,8.60
2019-04-28T10:18:56.410Z,8.50
2019-04-28T10:21:25.271Z,8.40
2019-04-28T10:23:54.050Z,8.30
2019-04-28T10:26:25.604Z,8.40
2019-04-28T10:28:54.308Z,8.50
2019-04-28T10:31:22.986Z,8.50
2019-04-28T10:33:53.386Z,8.30
2019-04-28T10:36:22.086Z,8.20
2019-04-28T10:38:52.391Z,8.00
2019-04-28T10:41:22.706Z,7.80
2019-04-28T10:43:51.479Z,7.70
2019-04-28T10:46:20.282Z,7.70
2019-04-28T10:48:49.100Z,7.80
2019-04-28T10:51:17.752Z,7.90
2019-04-28T10:53:46.831Z,8.00
2019-04-28T10:56:15.675Z,8.20
2019-04-28T10:58:45.919Z,8.40
2019-04-28T11:01:14.733Z,8.60
2019-04-28T11:03:45.113Z,8.80
2019-04-28T11:06:13.758Z,9.10
2019-04-28T11:08:44.462Z,9.70
2019-04-28T11:11:15.095Z,10.30
2019-04-28T11:13:44.243Z,11.10
2019-04-28T11:16:14.653Z,11.50
2019-04-28T11:18:43.851Z,11.50
2019-04-28T11:21:12.615Z,11.30
2019-04-28T11:23:41.290Z,10.90
2019-04-28T11:26:09.948Z,10.50
2019-04-28T11:28:38.723Z,10.20
2019-04-28T11:31:07.634Z,9.90
2019-04-28T11:33:40.972Z,9.60
2019-04-28T11:36:09.697Z,9.40
2019-04-28T11:38:39.888Z,9.30
2019-04-28T11:41:11.418Z,9.30
2019-04-28T11:43:39.305Z,9.30
2019-04-28T11:46:09.586Z,9.40
2019-04-28T11:48:38.723Z,9.50
2019-04-28T11:51:07.420Z,9.80
2019-04-28T11:53:36.000Z,10.20
2019-04-28T11:56:04.553Z,10.90
2019-04-28T11:58:33.334Z,11.50
2019-04-28T12:01:02.190Z,11.80
2019-04-28T12:03:30.758Z,11.80
2019-04-28T12:05:59.296Z,11.70
2019-04-28T12:08:29.162Z,11.70
2019-04-28T12:11:05.110Z,11.70
2019-04-28T12:13:52.924Z,11.60
2019-04-28T12:16:23.173Z,11.40
2019-04-28T12:19:02.242Z,11.30
2019-04-28T12:21:30.961Z,11.40
2019-04-28T12:23:59.687Z,11.80
2019-04-28T12:26:28.509Z,12.10
2019-04-28T12:28:57.104Z,12.20
2019-04-28T12:31:25.726Z,12.00
2019-04-28T12:33:54.176Z,11.80
2019-04-28T12:36:22.726Z,11.70
2019-04-28T12:38:51.833Z,11.60
2019-04-28T12:41:20.522Z,11.60
2019-04-28T12:43:50.801Z,11.70
2019-04-28T12:46:19.429Z,11.60
2019-04-28T12:48:49.725Z,11.50
2019-04-28T12:51:18.324Z,11.30
2019-04-28T12:53:46.983Z,11.20
2019-04-28T12:56:15.669Z,11.20
2019-04-28T12:58:44.242Z,11.10
2019-04-28T13:01:30.518Z,10.90
2019-04-28T13:04:00.670Z,10.90
2019-04-28T13:06:29.189Z,10.80
2019-04-28T13:08:58.134Z,10.60
2019-04-28T13:11:26.946Z,10.60
2019-04-28T13:13:55.721Z,10.50
2019-04-28T13:16:24.531Z,10.50
2019-04-28T13:18:53.617Z,10.50
2019-04-28T13:21:23.003Z,10.50
2019-04-28T13:23:51.828Z,10.50
2019-04-28T13:26:20.486Z,10.50
2019-04-28T13:28:49.455Z,10.40
2019-04-28T13:31:18.066Z,10.40
2019-04-28T13:33:55.969Z,10.40
2019-04-28T13:36:17.441Z,10.30
2019-04-28T13:38:47.141Z,10.40
2019-04-28T13:41:15.823Z,10.40
2019-04-28T13:43:44.569Z,10.40
2019-04-28T13:46:13.316Z,10.40
2019-04-28T13:48:42.231Z,10.30
2019-04-28T13:51:10.955Z,10.30
2019-04-28T13:53:39.681Z,10.30
2019-04-28T13:56:08.429Z,10.30
2019-04-28T13:58:38.595Z,10.30
2019-04-28T14:01:08.955Z,10.30
2019-04-28T14:03:39.381Z,10.30
2019-04-28T14:06:09.717Z,10.40
2019-04-28T14:08:38.537Z,10.50
2019-04-28T14:11:07.223Z,10.60
2019-04-28T14:13:35.838Z,10.60
2019-04-28T14:16:04.619Z,10.60
2019-04-28T14:18:33.440Z,10.60
2019-04-28T14:21:02.095Z,10.70
2019-04-28T14:23:30.775Z,10.70
2019-04-28T14:26:00.911Z,10.70
2019-04-28T14:28:29.616Z,10.70
2019-04-28T14:30:59.798Z,10.80
2019-04-28T14:33:30.684Z,11.10
2019-04-28T14:35:59.419Z,11.40
2019-04-28T14:38:28.617Z,11.50
2019-04-28T14:40:57.873Z,11.50
2019-04-28T14:43:27.008Z,11.40
2019-04-28T14:45:55.815Z,11.40
2019-04-28T14:48:24.623Z,11.40
2019-04-28T14:50:53.216Z,11.60
2019-04-28T14:53:21.904Z,12.00
2019-04-28T14:55:50.608Z,12.30
2019-04-28T14:58:19.128Z,12.50
2019-04-28T15:01:07.480Z,12.40
2019-04-28T15:03:40.299Z,12.20
2019-04-28T15:06:19.259Z,12.10
2019-04-28T15:08:52.472Z,11.90
2019-04-28T15:11:22.825Z,11.70
2019-04-28T15:13:51.549Z,11.50
2019-04-28T15:16:20.314Z,11.30
2019-04-28T15:18:49.000Z,11.30
2019-04-28T15:21:18.026Z,11.40
2019-04-28T15:23:47.087Z,11.40
2019-04-28T15:26:15.860Z,11.30
2019-04-28T15:28:44.544Z,11.20
2019-04-28T15:31:13.224Z,11.20
2019-04-28T15:33:41.790Z,11.00
2019-04-28T15:36:13.852Z,11.00
2019-04-28T15:38:42.556Z,11.00
2019-04-28T15:41:21.511Z,11.00
2019-04-28T15:43:41.650Z,11.00
2019-04-28T15:46:10.331Z,11.00
2019-04-28T15:48:39.576Z,11.00
2019-04-28T15:51:09.520Z,10.90
2019-04-28T15:53:38.370Z,10.90
2019-04-28T15:56:20.278Z,10.90
2019-04-28T15:58:49.044Z,11.00
2019-04-28T16:01:17.956Z,11.00
2019-04-28T16:03:46.687Z,11.00
2019-04-28T16:06:16.391Z,11.00
2019-04-28T16:08:45.029Z,10.90
2019-04-28T16:11:13.850Z,10.90
2019-04-28T16:13:43.771Z,10.80
2019-04-28T16:16:12.617Z,10.80
2019-04-28T16:18:41.387Z,10.80
2019-04-28T16:21:10.128Z,10.90
2019-04-28T16:23:39.716Z,10.90
2019-04-28T16:26:08.421Z,10.90
2019-04-28T16:28:37.198Z,10.80
2019-04-28T16:31:05.927Z,10.70
2019-04-28T16:33:34.606Z,10.70
2019-04-28T16:36:04.782Z,10.50
2019-04-28T16:38:34.954Z,10.30
2019-04-28T16:41:04.235Z,10.20
2019-04-28T16:43:34.985Z,10.20
2019-04-28T16:46:03.907Z,10.10
2019-04-28T16:48:34.819Z,10.00
2019-04-28T16:51:04.169Z,9.90
2019-04-28T16:53:33.453Z,9.90
2019-04-28T16:56:18.982Z,9.90
2019-04-28T16:58:52.247Z,9.90
2019-04-28T17:01:25.523Z,9.80
2019-04-28T17:03:54.133Z,9.80
2019-04-28T17:06:22.785Z,9.70
2019-04-28T17:08:51.321Z,9.70
2019-04-28T17:11:20.042Z,9.70
2019-04-28T17:13:48.947Z,9.70
2019-04-28T17:16:17.649Z,9.60
2019-04-28T17:18:46.388Z,9.60
2019-04-28T17:21:15.567Z,9.60
2019-04-28T17:23:44.341Z,9.50
2019-04-28T17:26:13.347Z,9.50
2019-04-28T17:28:41.993Z,9.40
2019-04-28T17:31:12.836Z,9.40
2019-04-28T17:33:41.824Z,9.40
2019-04-28T17:36:10.563Z,9.30
2019-04-28T17:38:39.274Z,9.30
2019-04-28T17:41:10.054Z,9.20
2019-04-28T17:43:38.858Z,9.10
2019-04-28T17:46:09.028Z,9.10
2019-04-28T17:48:40.045Z,8.90
2019-04-28T17:51:09.385Z,8.90
2019-04-28T17:53:40.431Z,8.80
2019-04-28T17:56:09.653Z,8.70
2019-04-28T17:58:38.214Z,8.60
2019-04-28T18:01:08.522Z,8.60
2019-04-28T18:03:56.556Z,8.50
2019-04-28T18:06:27.511Z,8.40
2019-04-28T18:08:55.485Z,8.40
2019-04-28T18:11:24.511Z,8.30
2019-04-28T18:13:53.532Z,8.30
2019-04-28T18:16:38.970Z,8.20
2019-04-28T18:19:14.683Z,8.20
2019-04-28T18:21:43.562Z,8.10
2019-04-28T18:24:11.528Z,8.00
2019-04-28T18:26:40.147Z,7.90
2019-04-28T18:29:08.069Z,7.80
2019-04-28T18:31:46.436Z,7.80
2019-04-28T18:34:34.187Z,7.70
2019-04-28T18:37:12.399Z,7.70
2019-04-28T18:39:57.867Z,7.60
2019-04-28T18:42:44.495Z,7.50
2019-04-28T18:45:15.847Z,7.50
2019-04-28T18:47:45.775Z,7.40
2019-04-28T18:50:16.651Z,7.40
2019-04-28T18:52:45.317Z,7.40
2019-04-28T18:55:15.244Z,7.30
2019-04-28T18:57:43.964Z,7.30
2019-04-28T19:00:13.947Z,7.20
2019-04-28T19:02:44.345Z,7.20
2019-04-28T19:05:13.248Z,7.10
2019-04-28T19:07:49.084Z,7.10
2019-04-28T19:10:39.991Z,7.00
2019-04-28T19:13:20.529Z,7.00
2019-04-28T19:16:08.514Z,6.90
2019-04-28T19:18:42.881Z,6.80
2019-04-28T19:21:11.491Z,6.70
2019-04-28T19:23:41.094Z,6.70
2019-04-28T19:26:09.790Z,6.70
2019-04-28T19:28:40.378Z,6.60
2019-04-28T19:31:09.039Z,6.70
2019-04-28T19:33:37.706Z,6.70
2019-04-28T19:36:06.330Z,6.70
2019-04-28T19:38:35.065Z,6.80
2019-04-28T19:41:05.302Z,6.80
2019-04-28T19:43:36.138Z,6.90
2019-04-28T19:46:07.956Z,6.90
2019-04-28T19:48:36.675Z,6.90
2019-04-28T19:51:05.666Z,7.00
2019-04-28T19:53:34.272Z,7.00
2019-04-28T19:56:19.267Z,7.00
2019-04-28T19:58:49.566Z,7.10
2019-04-28T20:01:27.779Z,7.10
2019-04-28T20:03:56.380Z,7.10
2019-04-28T20:06:25.034Z,7.20
2019-04-28T20:08:53.715Z,7.10
2019-04-28T20:11:22.329Z,7.20
2019-04-28T20:13:51.195Z,7.20
2019-04-28T20:16:19.691Z,7.20
2019-04-28T20:18:49.647Z,7.20
2019-04-28T20:21:18.337Z,7.10
2019-04-28T20:23:46.948Z,7.20
2019-04-28T20:26:16.174Z,7.20
2019-04-28T20:28:44.774Z,7.20
2019-04-28T20:31:13.877Z,7.20
2019-04-28T20:33:42.611Z,7.20
2019-04-28T20:36:13.030Z,7.20
2019-04-28T20:38:41.952Z,7.10
2019-04-28T20:41:12.116Z,7.20
2019-04-28T20:43:41.151Z,7.20
2019-04-28T20:46:09.830Z,7.20
2019-04-28T20:48:38.726Z,7.10
2019-04-28T20:51:07.406Z,7.20
2019-04-28T20:53:37.822Z,7.20
2019-04-28T20:56:06.437Z,7.20
2019-04-28T20:58:35.059Z,7.20
2019-04-28T21:01:04.095Z,7.10
2019-04-28T21:03:32.658Z,7.10
2019-04-28T21:06:01.384Z,7.10
2019-04-28T21:08:30.115Z,7.00
2019-04-28T21:10:58.754Z,7.00
2019-04-28T21:13:28.088Z,6.90
2019-04-28T21:15:58.121Z,6.80
2019-04-28T21:18:26.810Z,6.80
2019-04-28T21:20:55.512Z,6.70
2019-04-28T21:23:24.787Z,6.60
2019-04-28T21:25:53.357Z,6.60
2019-04-28T21:28:22.014Z,6.60
2019-04-28T21:30:50.610Z,6.60
2019-04-28T21:33:19.227Z,6.50
2019-04-28T21:35:47.849Z,6.40
2019-04-28T21:38:16.648Z,6.40
2019-04-28T21:40:45.272Z,6.30
2019-04-28T21:43:18.225Z,6.30
2019-04-28T21:46:04.876Z,6.30
2019-04-28T21:48:44.131Z,6.30
2019-04-28T21:51:12.759Z,6.20
2019-04-28T21:53:41.952Z,6.20
2019-04-28T21:56:10.543Z,6.20
2019-04-28T21:58:39.075Z,6.20
2019-04-28T22:01:09.012Z,6.20
2019-04-28T22:03:37.625Z,6.20
2019-04-28T22:06:06.217Z,6.20
2019-04-28T22:08:34.962Z,6.20
2019-04-28T22:11:04.125Z,6.20
2019-04-28T22:13:32.794Z,6.10
2019-04-28T22:16:01.384Z,6.10
2019-04-28T22:18:29.909Z,6.10
2019-04-28T22:20:58.635Z,6.00
2019-04-28T22:23:47.074Z,6.00
2019-04-28T22:26:33.356Z,6.00
2019-04-28T22:29:01.890Z,5.90
2019-04-28T22:31:30.551Z,5.90
2019-04-28T22:33:59.173Z,5.90
2019-04-28T22:36:27.696Z,5.90
2019-04-28T22:38:56.859Z,5.90
2019-04-28T22:41:25.656Z,5.90
2019-04-28T22:43:54.259Z,5.90
2019-04-28T22:46:22.967Z,5.90
2019-04-28T22:48:53.237Z,6.00
2019-04-28T22:51:21.860Z,6.00
2019-04-28T22:53:50.530Z,6.10
2019-04-28T22:56:24.249Z,6.10
2019-04-28T22:59:06.295Z,6.10
2019-04-28T23:01:45.363Z,6.20
2019-04-28T23:04:15.718Z,6.20
2019-04-28T23:06:44.495Z,6.30
2019-04-28T23:09:14.977Z,6.40
2019-04-28T23:11:43.586Z,6.40
2019-04-28T23:14:12.355Z,6.40
2019-04-28T23:16:41.211Z,6.40
2019-04-28T23:19:11.511Z,6.50
2019-04-28T23:21:53.860Z,6.50
2019-04-28T23:24:22.454Z,6.50
2019-04-28T23:26:51.040Z,6.50
2019-04-28T23:29:19.589Z,6.50
2019-04-28T23:31:48.276Z,6.50
2019-04-28T23:34:16.896Z,6.50
2019-04-28T23:36:45.486Z,6.50
2019-04-28T23:39:14.135Z,6.50
2019-04-28T23:41:53.433Z,6.50
2019-04-28T23:44:22.239Z,6.50
2019-04-28T23:46:58.204Z,6.50
2019-04-28T23:49:27.942Z,6.50
2019-04-28T23:52:10.164Z,6.50
2019-04-28T23:54:40.869Z,6.50
2019-04-28T23:57:09.622Z,6.50
2019-04-28T23:59:38.226Z,6.50
